Time;durP1;ratioP1;P1;durP2;ratioP2;P2;SDS_P1;SDS_P2;PMS_P1;PMS_P2;Temp;Humidity;BMP_temperature;BMP_pressure;BME280_temperature;BME280_humidity;BME280_pressure;Samples;Min_cycle;Max_cycle;Signal;HPM_P1;HPM_P2
2024/01/03 00:00:03;;;;;;;12.00;8.00;;;;;;;-4.13;65.06;98702.23;107014;1263;66487;-40
2024/01/03 00:02:31;;;;;;;15.90;8.50;;;;;;;-4.19;65.04;98708.04;107123;1263;72775;-40
2024/01/03 00:04:58;;;;;;;12.20;7.40;;;;;;;-4.22;64.97;98701.88;107028;1262;60373;-39
2024/01/03 00:07:26;;;;;;;13.80;8.30;;;;;;;-4.28;64.85;98702.94;107031;1257;60485;-39
2024/01/03 00:09:58;;;;;;;11.00;6.90;;;;;;;-4.31;65.18;98699.70;107014;1258;73802;-39
2024/01/03 00:12:26;;;;;;;11.70;8.20;;;;;;;-4.28;65.21;98695.90;107117;1263;68244;-37
2024/01/03 00:14:54;;;;;;;14.80;8.60;;;;;;;-4.25;65.33;98705.34;107034;1258;72811;-37
2024/01/03 00:17:21;;;;;;;13.60;8.70;;;;;;;-4.26;65.38;98705.02;106994;1263;60605;-38
2024/01/03 00:19:54;;;;;;;15.10;9.00;;;;;;;-4.25;65.26;98702.70;107021;1264;60381;-38
2024/01/03 00:22:22;;;;;;;13.60;9.10;;;;;;;-4.29;65.07;98699.77;107115;1262;73924;-38
2024/01/03 00:25:00;;;;;;;12.20;8.20;;;;;;;-4.35;64.81;98692.63;107045;1265;66617;-38
2024/01/03 00:27:27;;;;;;;14.20;8.70;;;;;;;-4.43;64.96;98686.45;107011;1261;72875;-38
2024/01/03 00:30:03;;;;;;;14.40;8.60;;;;;;;-4.47;65.01;98689.67;107018;1263;60445;-38
2024/01/03 00:32:31;;;;;;;11.80;7.70;;;;;;;-4.49;65.23;98689.77;107116;1263;60466;-38
2024/01/03 00:34:59;;;;;;;11.20;8.10;;;;;;;-4.51;65.20;98704.25;106928;1257;73927;-38
2024/01/03 00:37:33;;;;;;;13.90;8.40;;;;;;;-4.51;65.29;98695.79;107025;1257;65377;-39
2024/01/03 00:40:00;;;;;;;12.60;7.60;;;;;;;-4.41;65.23;98694.17;107016;1260;71735;-39
2024/01/03 00:42:28;;;;;;;13.30;8.80;;;;;;;-4.33;65.20;98692.20;106912;1259;60182;-39
2024/01/03 00:44:55;;;;;;;14.40;9.00;;;;;;;-4.33;65.05;98690.23;107023;1257;60425;-38
2024/01/03 00:47:23;;;;;;;14.60;9.00;;;;;;;-4.35;65.55;98693.10;107052;1260;73574;-38
2024/01/03 00:49:51;;;;;;;14.60;9.80;;;;;;;-4.34;65.52;98689.97;107037;1264;67684;-38
2024/01/03 00:52:20;;;;;;;16.50;9.30;;;;;;;-4.33;65.96;98694.68;106267;1259;1002832;-39
2024/01/03 00:54:48;;;;;;;16.60;9.90;;;;;;;-4.33;65.89;98694.52;107034;1261;60269;-39
2024/01/03 00:57:15;;;;;;;15.70;9.80;;;;;;;-4.29;66.08;98694.05;107050;1258;60554;-39
2024/01/03 00:59:44;;;;;;;18.80;9.90;;;;;;;-4.28;66.05;98688.60;106267;1257;1002910;-39
2024/01/03 01:02:11;;;;;;;14.70;9.80;;;;;;;-4.31;65.84;98682.45;106424;1258;1002838;-39
2024/01/03 01:04:40;;;;;;;15.20;9.20;;;;;;;-4.33;66.11;98684.67;107033;1263;72452;-38
2024/01/03 01:07:08;;;;;;;15.60;9.50;;;;;;;-4.25;66.06;98686.19;107098;1256;60408;-38
2024/01/03 01:09:35;;;;;;;15.10;8.60;;;;;;;-4.16;66.09;98686.63;107274;1261;60023;-38
2024/01/03 01:12:04;;;;;;;13.90;8.20;;;;;;;-4.12;65.97;98690.46;107269;1257;72528;-39
2024/01/03 01:14:31;;;;;;;13.50;8.10;;;;;;;-4.11;65.80;98686.36;107240;1258;67887;-39
2024/01/03 01:16:59;;;;;;;13.60;8.40;;;;;;;-4.12;65.74;98675.38;107238;1257;72780;-39
2024/01/03 01:19:26;;;;;;;13.00;8.50;;;;;;;-4.16;65.72;98684.20;107221;1257;60562;-39
2024/01/03 01:21:54;;;;;;;14.50;8.60;;;;;;;-4.19;65.75;98672.32;106544;1256;1002942;-38
2024/01/03 01:24:21;;;;;;;12.80;8.50;;;;;;;-4.21;65.65;98669.27;107107;1260;73866;-38
2024/01/03 01:26:49;;;;;;;12.50;8.10;;;;;;;-4.22;65.98;98667.10;107113;1260;67532;-38
2024/01/03 01:29:16;;;;;;;13.30;8.40;;;;;;;-4.21;66.11;98671.54;107026;1261;72525;-38
2024/01/03 01:31:45;;;;;;;12.50;7.90;;;;;;;-4.19;66.00;98672.00;107122;1261;61402;-39
2024/01/03 01:34:13;;;;;;;12.40;6.70;;;;;;;-4.14;65.87;98671.74;107034;1260;60491;-39
2024/01/03 01:36:42;;;;;;;11.60;7.20;;;;;;;-4.12;65.75;98665.20;107143;1259;72999;-39
2024/01/03 01:39:10;;;;;;;10.80;7.20;;;;;;;-4.14;66.08;98647.97;107127;1260;66723;-39
2024/01/03 01:41:37;;;;;;;11.50;8.30;;;;;;;-4.17;66.25;98641.39;107125;1258;71735;-39
2024/01/03 01:44:05;;;;;;;12.90;7.90;;;;;;;-4.21;65.98;98636.77;107118;1261;60508;-38
2024/01/03 01:46:34;;;;;;;10.70;7.00;;;;;;;-4.26;66.19;98635.33;107187;1261;60348;-39
2024/01/03 01:49:02;;;;;;;11.80;7.80;;;;;;;-4.28;66.26;98636.73;107044;1258;73879;-38
2024/01/03 01:51:29;;;;;;;11.80;7.90;;;;;;;-4.35;66.37;98629.83;107007;1258;66741;-39
2024/01/03 01:53:57;;;;;;;10.80;7.20;;;;;;;-4.34;66.76;98643.14;107036;1259;71804;-38
2024/01/03 01:56:25;;;;;;;12.00;7.60;;;;;;;-4.25;66.82;98650.67;107111;1261;60440;-39
2024/01/03 01:58:52;;;;;;;12.30;8.00;;;;;;;-4.13;67.04;98652.52;107083;1259;59314;-38
2024/01/03 02:01:20;;;;;;;18.30;7.90;;;;;;;-4.01;66.83;98652.11;107022;1261;72693;-38
2024/01/03 02:03:47;;;;;;;13.30;8.20;;;;;;;-3.95;66.51;98642.42;107013;1259;67553;-39
2024/01/03 02:06:16;;;;;;;12.10;7.70;;;;;;;-3.93;66.66;98639.39;106972;1260;71468;-39
2024/01/03 02:08:44;;;;;;;15.30;9.80;;;;;;;-3.94;66.35;98640.29;107069;1261;60419;-39
2024/01/03 02:11:12;;;;;;;14.80;9.60;;;;;;;-4.00;66.16;98645.48;107143;1257;60517;-38
2024/01/03 02:13:43;;;;;;;15.50;10.10;;;;;;;-4.06;66.51;98646.73;106929;1257;73886;-39
2024/01/03 02:16:11;;;;;;;15.80;9.90;;;;;;;-4.09;66.96;98635.05;107116;1257;67559;-38
2024/01/03 02:18:42;;;;;;;16.20;10.20;;;;;;;-4.06;67.09;98638.52;107036;1258;72738;-38
2024/01/03 02:21:15;;;;;;;17.10;10.70;;;;;;;-4.03;67.35;98634.20;107016;1261;60467;-39
2024/01/03 02:23:43;;;;;;;17.20;10.30;;;;;;;-4.05;67.61;98633.73;106405;1261;1003361;-38
2024/01/03 02:26:11;;;;;;;17.70;10.80;;;;;;;-4.11;67.26;98629.94;107128;1258;73816;-38
2024/01/03 02:28:52;;;;;;;19.50;11.60;;;;;;;-4.17;67.53;98631.70;107134;1257;67915;-39
2024/01/03 02:31:19;;;;;;;19.10;11.60;;;;;;;-4.22;67.66;98631.48;106361;1258;1002510;-38
2024/01/03 02:33:47;;;;;;;18.50;10.40;;;;;;;-4.22;67.78;98630.48;107136;1257;61875;-38
2024/01/03 02:36:14;;;;;;;17.70;10.20;;;;;;;-4.12;67.72;98628.26;107103;1260;60339;-39
2024/01/03 02:38:43;;;;;;;18.30;11.10;;;;;;;-4.10;67.65;98624.25;107015;1260;73876;-38
2024/01/03 02:41:10;;;;;;;18.20;11.80;;;;;;;-4.11;67.65;98624.10;107030;1258;66627;-39
2024/01/03 02:43:38;;;;;;;17.10;11.30;;;;;;;-4.10;67.80;98619.02;107156;1258;71071;-38
2024/01/03 02:46:05;;;;;;;20.20;11.40;;;;;;;-4.11;67.83;98623.63;107118;1260;59650;-39
2024/01/03 02:48:33;;;;;;;18.90;11.90;;;;;;;-4.10;67.91;98623.67;107162;1259;60287;-39
2024/01/03 02:51:01;;;;;;;16.80;10.90;;;;;;;-4.11;68.04;98627.60;106392;1257;1003113;-39
2024/01/03 02:53:28;;;;;;;16.50;10.20;;;;;;;-4.06;67.98;98625.27;107137;1257;66811;-39
2024/01/03 02:55:55;;;;;;;17.40;10.30;;;;;;;-3.95;67.85;98621.49;107017;1258;177461;-39
2024/01/03 02:59:45;;;;;;;19.50;10.50;;;;;;;-3.83;68.13;98622.42;104386;1290;601046;-39
2024/01/03 03:02:12;;;;;;;16.70;10.50;;;;;;;-3.80;68.23;98617.35;106652;1267;59226;-39
2024/01/03 03:04:40;;;;;;;19.10;10.70;;;;;;;-3.73;67.92;98616.48;106660;1269;59267;-39
2024/01/03 03:07:07;;;;;;;18.40;10.90;;;;;;;-3.73;67.85;98614.30;106707;1266;72263;-39
2024/01/03 03:09:35;;;;;;;16.70;10.70;;;;;;;-3.72;67.73;98610.63;106664;1267;66273;-40
2024/01/03 03:12:02;;;;;;;18.60;11.50;;;;;;;-3.72;67.67;98609.83;106722;1267;71094;-39
2024/01/03 03:14:30;;;;;;;17.00;10.30;;;;;;;-3.71;67.90;98606.80;106772;1268;138592;-39
2024/01/03 03:16:58;;;;;;;17.40;9.60;;;;;;;-3.64;67.52;98605.55;106893;1264;59331;-39
2024/01/03 03:19:26;;;;;;;16.60;10.50;;;;;;;-3.58;67.43;98603.48;106897;1267;71571;-39
2024/01/03 03:21:54;;;;;;;15.80;10.40;;;;;;;-3.63;67.26;98596.26;106084;1264;1002920;-40
2024/01/03 03:24:21;;;;;;;18.50;10.50;;;;;;;-3.69;67.35;98588.92;106811;1264;71685;-39
2024/01/03 03:26:49;;;;;;;17.80;11.50;;;;;;;-3.73;67.42;98585.33;106869;1264;59726;-39
2024/01/03 03:29:16;;;;;;;17.80;11.50;;;;;;;-3.77;67.69;98586.96;106823;1264;59117;-39
2024/01/03 03:31:44;;;;;;;19.50;11.30;;;;;;;-3.82;67.83;98576.29;106788;1263;73062;-39
2024/01/03 03:34:11;;;;;;;18.20;10.30;;;;;;;-3.86;67.84;98579.60;106875;1264;66732;-39
2024/01/03 03:36:39;;;;;;;16.90;10.90;;;;;;;-3.85;67.68;98571.02;106837;1264;72699;-39
2024/01/03 03:39:07;;;;;;;19.50;12.10;;;;;;;-3.88;68.09;98567.52;106858;1267;59440;-39
2024/01/03 03:41:36;;;;;;;22.60;12.30;;;;;;;-3.91;68.18;98561.57;106899;1262;59970;-39
2024/01/03 03:44:03;;;;;;;19.40;12.40;;;;;;;-3.97;68.37;98558.92;106878;1264;73039;-39
2024/01/03 03:46:31;;;;;;;21.40;13.50;;;;;;;-4.03;68.43;98558.38;106877;1264;67849;-40
2024/01/03 03:48:58;;;;;;;22.50;12.90;;;;;;;-4.08;68.74;98551.71;107247;1257;72676;-39
2024/01/03 03:51:26;;;;;;;19.90;12.70;;;;;;;-4.07;68.77;98546.85;107236;1257;60365;-39
2024/01/03 03:53:54;;;;;;;22.40;13.60;;;;;;;-4.07;68.36;98551.13;107298;1257;60175;-39
2024/01/03 03:56:25;;;;;;;23.20;13.90;;;;;;;-4.12;68.58;98556.00;107267;1263;73061;-39
2024/01/03 03:58:53;;;;;;;21.90;13.30;;;;;;;-4.14;69.03;98557.23;107243;1258;68028;-39
2024/01/03 04:01:21;;;;;;;22.50;14.00;;;;;;;-4.14;69.07;98549.89;107172;1258;71389;-39
2024/01/03 04:03:48;;;;;;;19.70;12.30;;;;;;;-4.12;68.87;98552.34;107402;1258;60387;-39
2024/01/03 04:06:17;;;;;;;20.40;13.10;;;;;;;-4.04;68.86;98549.97;107317;1257;59942;-39
2024/01/03 04:08:46;;;;;;;20.60;12.10;;;;;;;-3.95;69.06;98547.90;107308;1257;73038;-39
2024/01/03 04:11:13;;;;;;;21.30;13.40;;;;;;;-3.95;68.98;98547.90;107336;1261;66284;-39
2024/01/03 04:13:41;;;;;;;21.50;12.80;;;;;;;-3.92;68.83;98548.66;107297;1263;72500;-39
2024/01/03 04:16:09;;;;;;;18.80;12.30;;;;;;;-3.92;68.90;98547.88;107257;1257;59314;-39
2024/01/03 04:18:36;;;;;;;19.50;11.60;;;;;;;-3.88;69.04;98555.77;107295;1257;59595;-40
2024/01/03 04:21:08;;;;;;;19.20;11.80;;;;;;;-3.81;69.05;98562.02;107318;1255;73038;-39
2024/01/03 04:23:36;;;;;;;20.60;11.90;;;;;;;-3.75;68.80;98563.32;107242;1258;66612;-39
2024/01/03 04:26:03;;;;;;;16.90;10.60;;;;;;;-3.68;68.71;98562.42;107316;1258;71362;-40
2024/01/03 04:28:31;;;;;;;18.90;11.90;;;;;;;-3.58;68.45;98561.02;107265;1257;59652;-39
2024/01/03 04:30:58;;;;;;;20.70;12.00;;;;;;;-3.55;68.65;98562.04;107286;1257;59519;-39
2024/01/03 04:33:26;;;;;;;18.70;12.50;;;;;;;-3.53;68.40;98565.02;107297;1255;73026;-39
2024/01/03 04:35:54;;;;;;;17.50;12.50;;;;;;;-3.55;68.06;98559.65;107287;1258;67558;-39
2024/01/03 04:38:21;;;;;;;20.80;13.00;;;;;;;-3.60;68.43;98564.42;107237;1257;71382;-39
2024/01/03 04:40:49;;;;;;;20.50;12.90;;;;;;;-3.64;68.59;98565.30;107268;1258;59640;-39
2024/01/03 04:43:16;;;;;;;19.00;11.50;;;;;;;-3.66;68.55;98567.33;107350;1256;60023;-39
2024/01/03 04:45:44;;;;;;;19.30;11.90;;;;;;;-3.61;68.40;98563.92;107267;1257;72965;-39
2024/01/03 04:48:15;;;;;;;20.90;12.60;;;;;;;-3.54;68.57;98558.86;107303;1257;67620;-39
2024/01/03 04:50:43;;;;;;;21.40;14.10;;;;;;;-3.54;68.78;98557.52;107293;1257;72460;-40
2024/01/03 04:53:11;;;;;;;22.60;13.70;;;;;;;-3.53;68.86;98554.01;107263;1258;59742;-41
2024/01/03 04:55:38;;;;;;;23.90;14.00;;;;;;;-3.54;69.03;98555.93;107281;1257;59783;-38
2024/01/03 04:58:05;;;;;;;25.30;15.00;;;;;;;-3.59;69.02;98553.45;107271;1257;73043;-39
2024/01/03 05:00:36;;;;;;;22.60;13.50;;;;;;;-3.63;68.93;98546.83;107261;1257;67637;-38
2024/01/03 05:03:04;;;;;;;18.20;12.40;;;;;;;-3.59;69.03;98546.78;107276;1257;72735;-38
2024/01/03 05:05:32;;;;;;;22.10;13.40;;;;;;;-3.53;69.34;98542.70;107291;1259;59423;-38
2024/01/03 05:08:00;;;;;;;20.60;13.00;;;;;;;-3.53;69.47;98541.88;107283;1260;59515;-38
2024/01/03 05:10:27;;;;;;;23.30;13.70;;;;;;;-3.54;69.25;98541.73;107303;1255;71752;-38
2024/01/03 05:12:55;;;;;;;23.00;14.60;;;;;;;-3.58;69.40;98543.95;107273;1257;67913;-38
2024/01/03 05:15:22;;;;;;;22.60;14.50;;;;;;;-3.57;69.51;98543.93;107277;1260;72679;-38
2024/01/03 05:17:51;;;;;;;23.30;13.60;;;;;;;-3.59;69.37;98540.48;107291;1256;59604;-38
2024/01/03 05:20:19;;;;;;;19.10;12.50;;;;;;;-3.61;69.07;98537.91;107297;1258;59493;-38
2024/01/03 05:22:46;;;;;;;21.30;13.10;;;;;;;-3.55;69.15;98536.11;107301;1260;73056;-39
2024/01/03 05:25:14;;;;;;;19.80;13.80;;;;;;;-3.55;69.34;98536.08;107281;1262;66737;-39
2024/01/03 05:27:42;;;;;;;22.20;14.50;;;;;;;-3.59;69.53;98534.80;107277;1257;72679;-39
2024/01/03 05:30:11;;;;;;;23.80;13.90;;;;;;;-3.64;69.46;98534.94;107304;1260;59556;-38
2024/01/03 05:32:38;;;;;;;23.70;14.50;;;;;;;-3.73;69.72;98534.79;106580;1260;1002695;-39
2024/01/03 05:35:07;;;;;;;24.20;14.30;;;;;;;-3.78;69.92;98537.04;106545;1257;1015790;-38
2024/01/03 05:37:34;;;;;;;25.30;14.90;;;;;;;-3.76;70.06;98534.94;107392;1258;67539;-38
2024/01/03 05:40:02;;;;;;;23.00;15.10;;;;;;;-3.73;70.23;98531.98;107259;1262;71349;-39
2024/01/03 05:42:31;;;;;;;26.30;16.70;;;;;;;-3.78;70.45;98534.59;107380;1258;59486;-39
2024/01/03 05:44:59;;;;;;;28.30;15.90;;;;;;;-3.87;70.48;98535.19;107282;1257;59996;-38
2024/01/03 05:47:26;;;;;;;29.10;16.30;;;;;;;-3.91;70.97;98543.20;107290;1257;70805;-38
2024/01/03 05:49:54;;;;;;;26.80;16.00;;;;;;;-3.95;71.02;98541.17;107365;1260;66314;-39
2024/01/03 05:52:22;;;;;;;24.30;15.30;;;;;;;-3.91;70.93;98546.05;107305;1261;71136;-38
2024/01/03 05:54:49;;;;;;;26.70;15.40;;;;;;;-3.90;71.29;98545.14;106534;1258;1002870;-39
2024/01/03 05:57:16;;;;;;;23.70;16.20;;;;;;;-3.96;71.65;98543.83;107300;1260;59268;-39
2024/01/03 05:59:44;;;;;;;26.50;15.90;;;;;;;-4.04;71.52;98543.55;107289;1262;71738;-38
2024/01/03 06:02:12;;;;;;;28.60;16.40;;;;;;;-4.09;72.01;98548.82;107292;1261;66611;-38
2024/01/03 06:04:39;;;;;;;25.90;15.90;;;;;;;-4.07;72.37;98542.45;107266;1256;71391;-38
2024/01/03 06:07:07;;;;;;;22.70;15.50;;;;;;;-4.02;72.41;98537.70;107332;1260;59509;-38
2024/01/03 06:09:36;;;;;;;27.20;16.40;;;;;;;-4.05;72.47;98527.90;107300;1260;59693;-38
2024/01/03 06:12:04;;;;;;;24.60;14.60;;;;;;;-4.11;72.68;98524.88;106593;1260;1003478;-39
2024/01/03 06:14:31;;;;;;;24.70;16.10;;;;;;;-4.20;72.95;98526.09;107353;1257;67662;-39
2024/01/03 06:16:59;;;;;;;28.00;16.50;;;;;;;-4.24;72.97;98520.58;107305;1257;72405;-38
2024/01/03 06:19:26;;;;;;;24.30;15.80;;;;;;;-4.22;73.03;98528.39;106573;1260;1003495;-39
2024/01/03 06:21:54;;;;;;;33.90;16.10;;;;;;;-4.26;73.66;98523.35;107289;1257;59503;-39
2024/01/03 06:24:21;;;;;;;28.10;17.30;;;;;;;-4.29;73.92;98512.33;106544;1255;1002989;-39
2024/01/03 06:26:49;;;;;;;24.60;16.30;;;;;;;-4.31;74.06;98506.80;107312;1260;67528;-39
2024/01/03 06:29:16;;;;;;;26.30;16.90;;;;;;;-4.27;73.88;98507.60;107384;1260;71435;-39
2024/01/03 06:31:44;;;;;;;24.30;16.00;;;;;;;-4.21;73.43;98499.52;107286;1258;59634;-39
2024/01/03 06:34:11;;;;;;;30.50;17.70;;;;;;;-4.25;73.27;98495.29;107295;1258;59899;-39
2024/01/03 06:36:39;;;;;;;30.60;17.70;;;;;;;-4.32;73.68;98484.33;107310;1258;73040;-39
2024/01/03 06:39:07;;;;;;;26.70;16.20;;;;;;;-4.38;73.63;98481.75;107302;1262;66296;-39
2024/01/03 06:41:34;;;;;;;25.70;15.70;;;;;;;-4.38;73.84;98485.08;107312;1258;72632;-40
2024/01/03 06:44:02;;;;;;;24.90;16.30;;;;;;;-4.39;73.85;98482.23;107290;1258;59506;-40
2024/01/03 06:46:29;;;;;;;31.40;17.20;;;;;;;-4.46;74.11;98476.66;107308;1256;59980;-40
2024/01/03 06:48:57;;;;;;;27.50;17.00;;;;;;;-4.49;74.75;98473.45;106565;1258;1002921;-39
2024/01/03 06:51:26;;;;;;;24.70;15.90;;;;;;;-4.48;74.88;98464.79;107329;1263;66284;-39
2024/01/03 06:53:53;;;;;;;27.80;16.50;;;;;;;-4.44;74.72;98466.05;107296;1257;72668;-40
2024/01/03 06:56:22;;;;;;;29.00;17.90;;;;;;;-4.47;74.98;98465.56;107297;1255;59381;-40
2024/01/03 06:58:51;;;;;;;25.90;16.50;;;;;;;-4.51;75.25;98459.64;107299;1263;60114;-39
2024/01/03 07:01:18;;;;;;;25.80;15.60;;;;;;;-4.54;75.47;98449.88;107365;1260;71912;-39
2024/01/03 07:03:46;;;;;;;27.30;16.70;;;;;;;-4.48;75.26;98446.16;107340;1257;66344;-39
2024/01/03 07:06:14;;;;;;;27.10;16.20;;;;;;;-4.46;75.30;98442.48;107293;1257;72434;-39
2024/01/03 07:08:42;;;;;;;28.60;17.70;;;;;;;-4.48;75.21;98436.73;107314;1261;60466;-39
2024/01/03 07:11:10;;;;;;;26.20;16.50;;;;;;;-4.50;75.46;98435.11;107266;1257;60300;-39
2024/01/03 07:13:37;;;;;;;24.70;15.10;;;;;;;-4.46;75.42;98430.04;106608;1258;1003785;-39
2024/01/03 07:16:05;;;;;;;27.10;16.00;;;;;;;-4.41;74.76;98423.23;107306;1257;67558;-40
2024/01/03 07:18:32;;;;;;;25.80;16.40;;;;;;;-4.45;74.86;98420.95;107246;1260;72709;-39
2024/01/03 07:21:00;;;;;;;29.60;16.80;;;;;;;-4.51;75.00;98418.05;106503;1261;1003854;-40
2024/01/03 07:23:28;;;;;;;27.40;16.10;;;;;;;-4.56;75.10;98419.56;106509;1255;1003734;-40
2024/01/03 07:25:55;;;;;;;27.30;16.30;;;;;;;-4.51;75.19;98418.74;107289;1260;74136;-39
2024/01/03 07:28:23;;;;;;;28.90;17.40;;;;;;;-4.50;75.29;98422.48;107297;1258;67906;-39
2024/01/03 07:30:51;;;;;;;26.50;17.10;;;;;;;-4.53;75.82;98417.29;107278;1257;71385;-39
2024/01/03 07:33:18;;;;;;;29.40;18.00;;;;;;;-4.52;76.19;98414.63;107326;1256;61141;-39
2024/01/03 07:35:46;;;;;;;27.40;16.70;;;;;;;-4.41;76.11;98414.96;107273;1255;60034;-40
2024/01/03 07:38:14;;;;;;;28.90;18.40;;;;;;;-4.36;75.94;98418.08;107304;1256;72583;-40
2024/01/03 07:40:43;;;;;;;31.30;17.70;;;;;;;-4.37;75.65;98418.20;107294;1257;68036;-39
2024/01/03 07:43:10;;;;;;;30.60;17.30;;;;;;;-4.37;75.68;98414.23;107268;1260;72350;-39
2024/01/03 07:45:38;;;;;;;30.50;16.90;;;;;;;-4.30;75.67;98409.22;107276;1258;60787;-39
2024/01/03 07:48:06;;;;;;;28.40;17.40;;;;;;;-4.19;75.89;98403.61;107231;1257;60540;-39
2024/01/03 07:50:34;;;;;;;28.20;18.30;;;;;;;-4.15;75.86;98403.81;107264;1258;73986;-39
2024/01/03 07:53:02;;;;;;;30.50;18.70;;;;;;;-4.12;75.80;98396.88;107230;1262;67874;-39
2024/01/03 07:55:29;;;;;;;31.20;18.50;;;;;;;-4.10;75.68;98388.96;106452;1261;1015927;-39
2024/01/03 07:57:57;;;;;;;26.30;17.50;;;;;;;-4.05;75.22;98392.63;107205;1263;60373;-39
2024/01/03 08:00:27;;;;;;;28.00;17.70;;;;;;;-3.99;75.31;98389.95;106469;1258;1003725;-40
2024/01/03 08:02:54;;;;;;;30.20;17.90;;;;;;;-3.97;75.06;98389.61;107170;1258;73935;-40
2024/01/03 08:05:22;;;;;;;32.00;17.90;;;;;;;-3.99;75.01;98383.67;107188;1263;67509;-40
2024/01/03 08:07:49;;;;;;;30.30;17.30;;;;;;;-3.98;75.20;98383.64;107178;1257;73131;-39
2024/01/03 08:10:17;;;;;;;26.50;17.30;;;;;;;-3.89;75.04;98375.16;107214;1258;60473;-40
2024/01/03 08:12:44;;;;;;;28.10;17.00;;;;;;;-3.90;74.74;98369.60;107226;1259;60316;-41
2024/01/03 08:15:12;;;;;;;27.70;17.40;;;;;;;-3.87;75.09;98374.81;107202;1257;73814;-39
2024/01/03 08:17:40;;;;;;;32.20;18.00;;;;;;;-3.87;75.30;98368.55;107269;1257;67603;-39
2024/01/03 08:20:09;;;;;;;26.70;16.70;;;;;;;-3.81;75.45;98362.90;106396;1257;1014665;-39
2024/01/03 08:22:38;;;;;;;27.90;17.00;;;;;;;-3.67;75.41;98354.23;107262;1258;60415;-39
2024/01/03 08:25:06;;;;;;;28.60;17.90;;;;;;;-3.57;75.18;98351.95;107208;1263;60266;-39
2024/01/03 08:27:36;;;;;;;28.10;18.80;;;;;;;-3.53;74.85;98345.98;107229;1258;73923;-39
2024/01/03 08:30:04;;;;;;;;;;;;;;;-3.53;74.97;98340.57;107195;1257;66347;-39
2024/01/03 08:32:32;;;;;;;29.10;17.70;;;;;;;-3.55;74.82;98339.15;107214;1257;72667;-39
2024/01/03 08:35:00;;;;;;;32.60;18.70;;;;;;;-3.51;74.70;98337.48;107173;1258;60415;-39
2024/01/03 08:37:28;;;;;;;27.80;18.70;;;;;;;-3.50;75.02;98331.80;107223;1257;60497;-38
2024/01/03 08:39:56;;;;;;;33.20;20.10;;;;;;;-3.52;75.24;98329.33;107246;1262;72865;-39
2024/01/03 08:42:23;;;;;;;30.50;19.10;;;;;;;-3.55;75.16;98326.16;107196;1258;67564;-39
2024/01/03 08:44:51;;;;;;;28.00;17.80;;;;;;;-3.54;75.02;98318.40;106441;1258;1002917;-38
2024/01/03 08:47:19;;;;;;;27.50;18.10;;;;;;;-3.48;75.31;98318.98;107180;1257;60354;-39
2024/01/03 08:49:47;;;;;;;32.30;20.60;;;;;;;-3.48;75.25;98314.85;107214;1258;60302;-39
2024/01/03 08:52:14;;;;;;;33.70;18.70;;;;;;;-3.49;75.21;98309.23;107193;1262;72645;-39
2024/01/03 08:54:42;;;;;;;27.20;17.30;;;;;;;-3.45;75.36;98308.08;107203;1257;66399;-39
2024/01/03 08:57:09;;;;;;;27.80;17.70;;;;;;;-3.37;75.41;98305.38;107199;1263;71508;-39
2024/01/03 08:59:37;;;;;;;33.50;18.40;;;;;;;-3.37;75.17;98301.83;107163;1257;60453;-39
2024/01/03 09:02:05;;;;;;;30.70;19.10;;;;;;;-3.40;75.23;98296.20;107221;1257;60293;-39
2024/01/03 09:04:32;;;;;;;27.10;17.50;;;;;;;-3.44;75.45;98295.44;107172;1258;71728;-39
2024/01/03 09:07:00;;;;;;;27.30;17.60;;;;;;;-3.40;75.53;98291.97;107223;1258;67883;-39
2024/01/03 09:09:27;;;;;;;27.50;18.20;;;;;;;-3.39;75.65;98288.66;107200;1258;71275;-39
2024/01/03 09:11:55;;;;;;;34.60;19.80;;;;;;;-3.43;75.78;98284.60;107193;1258;60338;-39
2024/01/03 09:14:23;;;;;;;27.20;16.90;;;;;;;-3.46;75.98;98280.23;107197;1257;60532;-39
2024/01/03 09:16:51;;;;;;;28.50;17.20;;;;;;;-3.42;75.94;98282.42;107203;1258;73809;-39
2024/01/03 09:19:18;;;;;;;29.20;17.40;;;;;;;-3.36;75.97;98274.20;107221;1257;68319;-39
2024/01/03 09:21:46;;;;;;;32.00;18.20;;;;;;;-3.36;76.02;98270.65;107205;1258;71046;-39
2024/01/03 09:24:14;;;;;;;28.80;18.90;;;;;;;-3.38;76.34;98265.86;107152;1258;60322;-39
2024/01/03 09:26:42;;;;;;;25.40;17.10;;;;;;;-3.32;76.75;98257.32;107098;1257;60345;-38
2024/01/03 09:29:09;;;;;;;27.60;17.20;;;;;;;-3.20;76.51;98253.77;107238;1257;71668;-39
2024/01/03 09:31:43;;;;;;;31.30;18.80;;;;;;;-3.17;76.04;98244.02;107189;1257;66753;-39
2024/01/03 09:34:11;;;;;;;29.20;18.40;;;;;;;-3.21;76.07;98243.25;107251;1257;72385;-40
2024/01/03 09:36:38;;;;;;;28.50;17.10;;;;;;;-3.24;76.12;98235.89;107210;1257;60985;-39
2024/01/03 09:39:07;;;;;;;29.00;17.90;;;;;;;-3.19;76.14;98237.12;107211;1257;60466;-39
2024/01/03 09:41:35;;;;;;;26.70;17.00;;;;;;;-3.17;76.39;98223.34;107255;1257;72660;-39
2024/01/03 09:44:02;;;;;;;27.50;17.90;;;;;;;-3.18;76.35;98221.88;107126;1263;67541;-39
2024/01/03 09:46:34;;;;;;;27.70;18.10;;;;;;;-3.21;76.41;98216.28;107174;1257;72752;-39
2024/01/03 09:49:03;;;;;;;25.50;16.90;;;;;;;-3.18;76.48;98210.32;107184;1257;60398;-39
2024/01/03 09:51:31;;;;;;;20.40;14.10;;;;;;;-3.11;76.66;98201.75;107310;1257;60324;-40
2024/01/03 09:53:59;;;;;;;26.60;17.30;;;;;;;-3.10;76.76;98196.34;107243;1258;73669;-40
2024/01/03 09:56:27;;;;;;;31.20;19.40;;;;;;;-3.12;76.55;98189.36;107047;1257;67874;-40
2024/01/03 09:58:55;;;;;;;27.10;17.90;;;;;;;-3.12;76.54;98185.42;107220;1257;72694;-39
2024/01/03 10:01:22;;;;;;;28.00;17.50;;;;;;;-3.07;76.54;98177.21;107226;1257;60499;-39
2024/01/03 10:03:50;;;;;;;26.70;18.10;;;;;;;-3.07;76.67;98165.07;107254;1256;60251;-40
2024/01/03 10:06:18;;;;;;;28.80;17.70;;;;;;;-3.09;76.62;98160.40;107235;1257;72778;-40
2024/01/03 10:09:01;;;;;;;28.70;18.40;;;;;;;-3.10;76.54;98159.30;107237;1257;69271;-40
2024/01/03 10:11:29;;;;;;;30.60;18.50;;;;;;;-3.06;76.46;98152.64;107237;1256;72728;-39
2024/01/03 10:14:14;;;;;;;32.30;21.30;;;;;;;-3.06;76.77;98145.19;107220;1257;60555;-40
2024/01/03 10:16:45;;;;;;;30.00;19.70;;;;;;;-3.10;76.89;98131.09;107258;1257;60232;-40
2024/01/03 10:19:17;;;;;;;30.80;20.00;;;;;;;-3.05;77.23;98121.23;107219;1257;73725;-39
2024/01/03 10:21:48;;;;;;;30.60;20.90;;;;;;;-3.03;77.15;98109.63;107131;1256;66426;-39
2024/01/03 10:24:17;;;;;;;30.10;19.80;;;;;;;-3.03;77.45;98101.84;107256;1257;72649;-39
2024/01/03 10:26:45;;;;;;;32.80;19.80;;;;;;;-3.05;77.35;98098.81;107260;1257;60815;-39
2024/01/03 10:29:14;;;;;;;32.40;19.30;;;;;;;-2.98;77.53;98099.70;107292;1262;60299;-39
2024/01/03 10:31:42;;;;;;;31.20;19.20;;;;;;;-2.95;77.42;98091.24;107104;1257;73837;-39
2024/01/03 10:34:15;;;;;;;31.50;19.90;;;;;;;-2.95;77.25;98091.52;107218;1256;66648;-39
2024/01/03 10:36:45;;;;;;;28.50;17.80;;;;;;;-2.97;77.46;98076.14;107251;1256;71478;-40
2024/01/03 10:39:18;;;;;;;29.80;19.50;;;;;;;-2.92;77.34;98062.73;107247;1257;60309;-40
2024/01/03 10:41:47;;;;;;;26.70;17.90;;;;;;;-2.90;76.92;98069.60;107286;1257;60427;-40
2024/01/03 10:44:15;;;;;;;32.20;19.70;;;;;;;-2.92;77.22;98069.87;107229;1257;72372;-39
2024/01/03 10:46:44;;;;;;;29.60;19.30;;;;;;;-2.91;77.24;98064.76;107273;1257;67055;-40
2024/01/03 10:49:11;;;;;;;26.60;17.90;;;;;;;-2.84;77.21;98062.46;107268;1257;71363;-40
2024/01/03 10:51:40;;;;;;;27.40;18.90;;;;;;;-2.81;77.10;98060.51;107210;1258;60507;-39
2024/01/03 10:54:12;;;;;;;30.70;20.40;;;;;;;-2.82;77.17;98053.39;107235;1258;60519;-40
2024/01/03 10:56:50;;;;;;;29.10;18.30;;;;;;;-2.85;77.21;98050.60;107231;1257;73878;-40
2024/01/03 10:59:18;;;;;;;27.00;19.50;;;;;;;-2.76;77.27;98053.30;107274;1258;67622;-38
2024/01/03 11:01:50;;;;;;;27.90;18.70;;;;;;;-2.73;77.20;98057.13;107029;1262;70865;-38
2024/01/03 11:04:23;;;;;;;32.00;20.10;;;;;;;-2.73;77.16;98053.31;107251;1257;60381;-38
2024/01/03 11:06:59;;;;;;;29.80;20.00;;;;;;;-2.75;77.32;98044.12;107233;1257;60521;-39
2024/01/03 11:09:27;;;;;;;28.30;19.10;;;;;;;-2.70;77.09;98035.88;107280;1257;72603;-39
2024/01/03 11:12:11;;;;;;;30.20;20.60;;;;;;;-2.69;77.35;98025.45;107218;1257;67556;-39
2024/01/03 11:14:39;;;;;;;31.70;20.10;;;;;;;-2.75;77.53;98018.72;107238;1257;72781;-39